DLH8AC EDDF-EDDS
Flight info
| Callsign | DLH8AC |
|---|---|
| Flight time | 0h 21m |
| Altitude | 19000 |
| Route | ANEKI2L ANEKI Y163 NEKLO Y171 INKAM N850 KRH T128 BADSO BADSO2A |
| Aircraft | A319/M-SDE3FGHIRWY/LB1 |
Departure
| Time | 2026-04-18 08:23 |
|---|---|
| Airport | Frankfurt Main Airport (EDDF) |
Arrival
| Time | 2026-04-18 08:44 |
|---|---|
| Airport | Stuttgart Airport (EDDS) |
| Time | Latitude | Longitude | Altitude | Speed | Heading |
|---|---|---|---|---|---|
| 2026-04-18 07:55 | 50.04401 | 8.56223 | 362 ft | 0 kts | 160° |
| 2026-04-18 08:10 | 50.04402 | 8.56222 | 356 ft | 0 kts | 159° |
| 2026-04-18 08:13 | 50.04415 | 8.56215 | 362 ft | 4 kts | 161° |
| 2026-04-18 08:13 | 50.04441 | 8.56203 | 362 ft | 4 kts | 172° |
| 2026-04-18 08:13 | 50.04466 | 8.56204 | 360 ft | 4 kts | 208° |
| 2026-04-18 08:14 | 50.04477 | 8.56217 | 365 ft | 0 kts | 250° |
| 2026-04-18 08:14 | 50.04470 | 8.56191 | 358 ft | 4 kts | 250° |
| 2026-04-18 08:14 | 50.04461 | 8.56152 | 359 ft | 4 kts | 250° |
| 2026-04-18 08:14 | 50.04453 | 8.56117 | 358 ft | 1 kts | 249° |
| 2026-04-18 08:15 | 50.04453 | 8.56116 | 358 ft | 0 kts | 249° |
| 2026-04-18 08:17 | 50.04452 | 8.56114 | 362 ft | 1 kts | 249° |
| 2026-04-18 08:17 | 50.04447 | 8.56093 | 358 ft | 4 kts | 249° |
| 2026-04-18 08:17 | 50.04429 | 8.56039 | 358 ft | 7 kts | 224° |
| 2026-04-18 08:17 | 50.04374 | 8.56038 | 362 ft | 10 kts | 162° |
| 2026-04-18 08:18 | 50.04303 | 8.56075 | 359 ft | 11 kts | 172° |
| 2026-04-18 08:18 | 50.04250 | 8.55988 | 361 ft | 13 kts | 250° |
| 2026-04-18 08:18 | 50.04217 | 8.55848 | 356 ft | 14 kts | 249° |
| 2026-04-18 08:18 | 50.04180 | 8.55695 | 355 ft | 16 kts | 250° |
| 2026-04-18 08:19 | 50.04141 | 8.55531 | 352 ft | 16 kts | 249° |
| 2026-04-18 08:19 | 50.04101 | 8.55361 | 355 ft | 17 kts | 250° |
| 2026-04-18 08:19 | 50.04061 | 8.55197 | 356 ft | 16 kts | 250° |
| 2026-04-18 08:19 | 50.04022 | 8.55030 | 360 ft | 17 kts | 249° |
| 2026-04-18 08:20 | 50.03979 | 8.54854 | 356 ft | 18 kts | 251° |
| 2026-04-18 08:20 | 50.03933 | 8.54659 | 351 ft | 20 kts | 250° |
| 2026-04-18 08:20 | 50.03882 | 8.54448 | 348 ft | 22 kts | 249° |
| 2026-04-18 08:20 | 50.03805 | 8.54241 | 347 ft | 23 kts | 245° |
| 2026-04-18 08:21 | 50.03748 | 8.54010 | 348 ft | 23 kts | 250° |
| 2026-04-18 08:21 | 50.03690 | 8.53767 | 346 ft | 24 kts | 249° |
| 2026-04-18 08:21 | 50.03628 | 8.53517 | 340 ft | 25 kts | 248° |
| 2026-04-18 08:21 | 50.03564 | 8.53255 | 339 ft | 26 kts | 249° |
| 2026-04-18 08:22 | 50.03501 | 8.52991 | 334 ft | 24 kts | 249° |
| 2026-04-18 08:22 | 50.03438 | 8.52745 | 335 ft | 22 kts | 248° |
| 2026-04-18 08:22 | 50.03402 | 8.52608 | 333 ft | 6 kts | 247° |
| 2026-04-18 08:22 | 50.03356 | 8.52593 | 336 ft | 13 kts | 178° |
| 2026-04-18 08:23 | 50.03027 | 8.52598 | 332 ft | 86 kts | 179° |
| 2026-04-18 08:23 | 50.02191 | 8.52607 | 332 ft | 151 kts | 179° |
| 2026-04-18 08:23 | 50.01062 | 8.52621 | 763 ft | 165 kts | 178° |
| 2026-04-18 08:23 | 49.99902 | 8.52663 | 1467 ft | 167 kts | 179° |
| 2026-04-18 08:24 | 49.98697 | 8.52741 | 1974 ft | 186 kts | 178° |
| 2026-04-18 08:24 | 49.97326 | 8.52835 | 2376 ft | 209 kts | 178° |
| 2026-04-18 08:24 | 49.95791 | 8.52943 | 2942 ft | 227 kts | 178° |
| 2026-04-18 08:24 | 49.94200 | 8.53056 | 3873 ft | 229 kts | 178° |
| 2026-04-18 08:25 | 49.92615 | 8.53168 | 4857 ft | 230 kts | 178° |
| 2026-04-18 08:25 | 49.91001 | 8.53279 | 5833 ft | 232 kts | 179° |
| 2026-04-18 08:25 | 49.89377 | 8.53390 | 6798 ft | 234 kts | 179° |
| 2026-04-18 08:25 | 49.87751 | 8.53500 | 7680 ft | 237 kts | 178° |
| 2026-04-18 08:26 | 49.86080 | 8.53613 | 8534 ft | 242 kts | 178° |
| 2026-04-18 08:26 | 49.84378 | 8.53730 | 9426 ft | 246 kts | 179° |
| 2026-04-18 08:26 | 49.82664 | 8.53847 | 10284 ft | 250 kts | 179° |
| 2026-04-18 08:26 | 49.80903 | 8.53967 | 11074 ft | 255 kts | 179° |
| 2026-04-18 08:27 | 49.79111 | 8.54087 | 11862 ft | 260 kts | 180° |
| 2026-04-18 08:27 | 49.77285 | 8.54051 | 12545 ft | 269 kts | 188° |
| 2026-04-18 08:27 | 49.75333 | 8.53789 | 12887 ft | 292 kts | 188° |
| 2026-04-18 08:27 | 49.73245 | 8.53498 | 13165 ft | 316 kts | 188° |
| 2026-04-18 08:28 | 49.70983 | 8.53181 | 13424 ft | 338 kts | 188° |
| 2026-04-18 08:28 | 49.68595 | 8.52856 | 13979 ft | 349 kts | 188° |
| 2026-04-18 08:28 | 49.66966 | 8.52639 | 14413 ft | 353 kts | 188° |
| 2026-04-18 08:28 | 49.63687 | 8.52213 | 15283 ft | 359 kts | 188° |
| 2026-04-18 08:29 | 49.61992 | 8.51995 | 15744 ft | 362 kts | 188° |
| 2026-04-18 08:29 | 49.59497 | 8.51672 | 16420 ft | 365 kts | 188° |
| 2026-04-18 08:29 | 49.56933 | 8.51339 | 17103 ft | 369 kts | 188° |
| 2026-04-18 08:29 | 49.54353 | 8.50998 | 17779 ft | 373 kts | 188° |
| 2026-04-18 08:30 | 49.51785 | 8.50657 | 18445 ft | 377 kts | 188° |
| 2026-04-18 08:30 | 49.49148 | 8.50308 | 18967 ft | 381 kts | 188° |
| 2026-04-18 08:30 | 49.46500 | 8.49960 | 19142 ft | 381 kts | 188° |
| 2026-04-18 08:30 | 49.43853 | 8.49620 | 19190 ft | 379 kts | 188° |
| 2026-04-18 08:31 | 49.41258 | 8.49288 | 19191 ft | 378 kts | 188° |
| 2026-04-18 08:31 | 49.38624 | 8.48944 | 19194 ft | 378 kts | 188° |
| 2026-04-18 08:31 | 49.35993 | 8.48833 | 19139 ft | 379 kts | 177° |
| 2026-04-18 08:31 | 49.33420 | 8.49716 | 18902 ft | 374 kts | 167° |
| 2026-04-18 08:32 | 49.30957 | 8.50792 | 18672 ft | 370 kts | 167° |
| 2026-04-18 08:32 | 49.28460 | 8.51892 | 18165 ft | 373 kts | 167° |
| 2026-04-18 08:32 | 49.25960 | 8.52993 | 17610 ft | 373 kts | 167° |
| 2026-04-18 08:32 | 49.23486 | 8.54080 | 17138 ft | 371 kts | 167° |
| 2026-04-18 08:33 | 49.21008 | 8.55161 | 16668 ft | 368 kts | 167° |
| 2026-04-18 08:33 | 49.18562 | 8.56223 | 16191 ft | 366 kts | 167° |
| 2026-04-18 08:33 | 49.16101 | 8.57289 | 15739 ft | 364 kts | 167° |
| 2026-04-18 08:33 | 49.13698 | 8.58329 | 15316 ft | 361 kts | 167° |
| 2026-04-18 08:34 | 49.11283 | 8.59374 | 14885 ft | 359 kts | 167° |
| 2026-04-18 08:34 | 49.08870 | 8.60414 | 14471 ft | 356 kts | 167° |
| 2026-04-18 08:34 | 49.06511 | 8.61428 | 14056 ft | 354 kts | 167° |
| 2026-04-18 08:34 | 49.04141 | 8.62446 | 13600 ft | 352 kts | 167° |
| 2026-04-18 08:35 | 49.01783 | 8.63462 | 13152 ft | 349 kts | 167° |
| 2026-04-18 08:35 | 48.99458 | 8.64463 | 12724 ft | 345 kts | 166° |
| 2026-04-18 08:35 | 48.97179 | 8.65441 | 12284 ft | 342 kts | 166° |
| 2026-04-18 08:35 | 48.94884 | 8.66424 | 11691 ft | 344 kts | 166° |
| 2026-04-18 08:36 | 48.92561 | 8.67412 | 11297 ft | 350 kts | 166° |
| 2026-04-18 08:36 | 48.90209 | 8.68410 | 11161 ft | 356 kts | 166° |
| 2026-04-18 08:36 | 48.87817 | 8.69430 | 11175 ft | 348 kts | 166° |
| 2026-04-18 08:36 | 48.85559 | 8.70401 | 11184 ft | 330 kts | 166° |
| 2026-04-18 08:37 | 48.83366 | 8.71343 | 11182 ft | 321 kts | 166° |
| 2026-04-18 08:37 | 48.81289 | 8.72235 | 11128 ft | 307 kts | 166° |
| 2026-04-18 08:37 | 48.79260 | 8.73104 | 10874 ft | 298 kts | 166° |
| 2026-04-18 08:37 | 48.77273 | 8.73952 | 10367 ft | 294 kts | 166° |
| 2026-04-18 08:38 | 48.75312 | 8.74782 | 9832 ft | 290 kts | 166° |
| 2026-04-18 08:38 | 48.73367 | 8.75606 | 9227 ft | 287 kts | 166° |
| 2026-04-18 08:38 | 48.71461 | 8.76415 | 8636 ft | 285 kts | 165° |
| 2026-04-18 08:38 | 48.69556 | 8.77224 | 8061 ft | 282 kts | 165° |
| 2026-04-18 08:39 | 48.67777 | 8.78346 | 7488 ft | 279 kts | 144° |
| 2026-04-18 08:39 | 48.66505 | 8.80524 | 6909 ft | 276 kts | 116° |
| 2026-04-18 08:39 | 48.65884 | 8.83232 | 6284 ft | 274 kts | 105° |
| 2026-04-18 08:39 | 48.65412 | 8.85996 | 5883 ft | 263 kts | 104° |
| 2026-04-18 08:40 | 48.64984 | 8.88588 | 5719 ft | 244 kts | 104° |
| 2026-04-18 08:40 | 48.64595 | 8.90964 | 5564 ft | 228 kts | 104° |
| 2026-04-18 08:40 | 48.64219 | 8.93264 | 5208 ft | 222 kts | 104° |
| 2026-04-18 08:40 | 48.63976 | 8.95599 | 4716 ft | 229 kts | 85° |
| 2026-04-18 08:41 | 48.64340 | 8.97920 | 4310 ft | 229 kts | 73° |
| 2026-04-18 08:41 | 48.64783 | 9.00204 | 3986 ft | 222 kts | 73° |
| 2026-04-18 08:41 | 48.65213 | 9.02436 | 3691 ft | 217 kts | 73° |
| 2026-04-18 08:41 | 48.65624 | 9.04575 | 3448 ft | 206 kts | 73° |
| 2026-04-18 08:42 | 48.66013 | 9.06608 | 3159 ft | 201 kts | 73° |
| 2026-04-18 08:42 | 48.66398 | 9.08618 | 2881 ft | 195 kts | 73° |
| 2026-04-18 08:42 | 48.66764 | 9.10532 | 2629 ft | 182 kts | 73° |
| 2026-04-18 08:42 | 48.67106 | 9.12311 | 2402 ft | 170 kts | 73° |
| 2026-04-18 08:43 | 48.67423 | 9.13971 | 2175 ft | 161 kts | 73° |
| 2026-04-18 08:43 | 48.67725 | 9.15553 | 1978 ft | 152 kts | 74° |
| 2026-04-18 08:43 | 48.68006 | 9.17038 | 1769 ft | 145 kts | 74° |
| 2026-04-18 08:43 | 48.68283 | 9.18468 | 1574 ft | 139 kts | 75° |
| 2026-04-18 08:44 | 48.68549 | 9.19879 | 1384 ft | 140 kts | 74° |
| 2026-04-18 08:44 | 48.68815 | 9.21281 | 1262 ft | 129 kts | 74° |
| 2026-04-18 08:44 | 48.69015 | 9.22339 | 1231 ft | 71 kts | 74° |
| 2026-04-18 08:44 | 48.69067 | 9.22560 | 1226 ft | 4 kts | 11° |
| 2026-04-18 08:45 | 48.69113 | 9.22540 | 1226 ft | 10 kts | 341° |
| 2026-04-18 08:45 | 48.69192 | 9.22505 | 1232 ft | 12 kts | 345° |
| 2026-04-18 08:45 | 48.69277 | 9.22459 | 1238 ft | 13 kts | 320° |
| 2026-04-18 08:45 | 48.69278 | 9.22347 | 1251 ft | 10 kts | 252° |
| 2026-04-18 08:46 | 48.69259 | 9.22254 | 1246 ft | 8 kts | 253° |
| 2026-04-18 08:46 | 48.69243 | 9.22170 | 1250 ft | 8 kts | 254° |
| 2026-04-18 08:46 | 48.69228 | 9.22086 | 1245 ft | 9 kts | 254° |
| 2026-04-18 08:46 | 48.69211 | 9.21992 | 1248 ft | 10 kts | 255° |
| 2026-04-18 08:47 | 48.69189 | 9.21880 | 1257 ft | 12 kts | 254° |
| 2026-04-18 08:47 | 48.69164 | 9.21751 | 1253 ft | 14 kts | 254° |
| 2026-04-18 08:47 | 48.69135 | 9.21600 | 1264 ft | 16 kts | 254° |
| 2026-04-18 08:47 | 48.69103 | 9.21428 | 1265 ft | 18 kts | 253° |
| 2026-04-18 08:48 | 48.69068 | 9.21241 | 1267 ft | 19 kts | 254° |
| 2026-04-18 08:48 | 48.69033 | 9.21061 | 1278 ft | 17 kts | 254° |
| 2026-04-18 08:48 | 48.69003 | 9.20901 | 1274 ft | 15 kts | 253° |
| 2026-04-18 08:48 | 48.68976 | 9.20762 | 1277 ft | 13 kts | 254° |
| 2026-04-18 08:49 | 48.68957 | 9.20655 | 1280 ft | 9 kts | 254° |
| 2026-04-18 08:49 | 48.68941 | 9.20577 | 1281 ft | 7 kts | 252° |
| 2026-04-18 08:49 | 48.68927 | 9.20505 | 1284 ft | 8 kts | 255° |
| 2026-04-18 08:49 | 48.68909 | 9.20404 | 1286 ft | 12 kts | 253° |
| 2026-04-18 08:50 | 48.68883 | 9.20272 | 1289 ft | 15 kts | 253° |
| 2026-04-18 08:50 | 48.68852 | 9.20109 | 1293 ft | 15 kts | 254° |
| 2026-04-18 08:50 | 48.68819 | 9.19984 | 1295 ft | 11 kts | 246° |
| 2026-04-18 08:50 | 48.68827 | 9.19906 | 1298 ft | 6 kts | 311° |
| 2026-04-18 08:51 | 48.68873 | 9.19880 | 1301 ft | 8 kts | 339° |
| 2026-04-18 08:51 | 48.68889 | 9.19815 | 1304 ft | 8 kts | 259° |
| 2026-04-18 08:51 | 48.68870 | 9.19717 | 1307 ft | 12 kts | 255° |
| 2026-04-18 08:51 | 48.68846 | 9.19591 | 1310 ft | 13 kts | 254° |
| 2026-04-18 08:52 | 48.68827 | 9.19482 | 1312 ft | 7 kts | 266° |
| 2026-04-18 08:52 | 48.68854 | 9.19446 | 1314 ft | 5 kts | 345° |
| 2026-04-18 08:52 | 48.68885 | 9.19433 | 1315 ft | 3 kts | 344° |
| 2026-04-18 08:52 | 48.68898 | 9.19427 | 1315 ft | 0 kts | 344° |